createdAt,value
2022-08-07T00:00:53.202Z,21.77
2022-08-07T00:03:27.721Z,21.77
2022-08-07T00:06:05.262Z,21.64
2022-08-07T00:08:36.527Z,21.64
2022-08-07T00:11:19.950Z,21.66
2022-08-07T00:13:57.745Z,21.24
2022-08-07T00:16:28.014Z,21.59
2022-08-07T00:18:55.716Z,21.62
2022-08-07T00:21:57.261Z,21.01
2022-08-07T00:24:11.557Z,21.58
2022-08-07T00:26:58.836Z,21.46
2022-08-07T00:29:31.475Z,21.37
2022-08-07T00:32:00.073Z,21.45
2022-08-07T00:34:28.025Z,21.49
2022-08-07T00:36:57.480Z,21.46
2022-08-07T00:39:25.131Z,21.36
2022-08-07T00:42:01.846Z,21.38
2022-08-07T00:44:33.956Z,20.91
2022-08-07T00:47:02.746Z,21.38
2022-08-07T00:50:18.944Z,21.40
2022-08-07T00:52:19.963Z,21.35
2022-08-07T00:54:53.542Z,21.32
2022-08-07T00:57:26.258Z,21.29
2022-08-07T00:59:54.850Z,21.30
2022-08-07T01:02:28.772Z,20.81
2022-08-07T01:04:59.315Z,21.32
2022-08-07T01:07:29.671Z,21.28
2022-08-07T01:10:06.513Z,20.75
2022-08-07T01:12:53.474Z,21.21
2022-08-07T01:16:00.936Z,21.23
2022-08-07T01:18:17.088Z,20.98
2022-08-07T01:21:05.349Z,21.12
2022-08-07T01:23:46.689Z,20.90
2022-08-07T01:26:19.538Z,21.02
2022-08-07T01:28:51.412Z,20.17
2022-08-07T01:31:41.566Z,21.09
2022-08-07T01:34:14.454Z,21.06
2022-08-07T01:36:52.569Z,21.04
2022-08-07T01:39:40.469Z,21.03
2022-08-07T01:42:37.676Z,20.51
2022-08-07T01:45:18.301Z,20.89
2022-08-07T01:48:17.577Z,20.89
2022-08-07T01:50:43.279Z,20.86
2022-08-07T01:53:20.887Z,20.59
2022-08-07T01:55:58.929Z,20.95
2022-08-07T01:58:33.589Z,20.97
2022-08-07T02:01:58.989Z,20.78
2022-08-07T02:04:17.992Z,21.06
2022-08-07T02:06:54.270Z,21.10
2022-08-07T02:09:33.931Z,21.14
2022-08-07T02:12:18.010Z,21.22
2022-08-07T02:15:06.031Z,21.24
2022-08-07T02:17:40.264Z,21.39
2022-08-07T02:20:19.924Z,21.52
2022-08-07T02:22:59.908Z,21.89
2022-08-07T02:26:11.438Z,22.34
2022-08-07T02:28:24.520Z,22.95
2022-08-07T02:30:56.087Z,22.98
2022-08-07T02:33:42.074Z,22.97
2022-08-07T02:36:29.081Z,22.86
2022-08-07T02:39:16.205Z,22.80
2022-08-07T02:41:50.905Z,22.48
2022-08-07T02:44:27.760Z,22.76
2022-08-07T02:47:05.910Z,22.53
2022-08-07T02:49:58.517Z,22.72
2022-08-07T02:52:32.667Z,22.66
2022-08-07T02:55:27.673Z,22.68
2022-08-07T02:58:03.097Z,22.76
2022-08-07T03:00:35.285Z,22.16
2022-08-07T03:03:07.627Z,22.96
2022-08-07T03:05:44.691Z,22.89
2022-08-07T03:08:13.975Z,23.10
2022-08-07T03:10:47.265Z,23.11
2022-08-07T03:13:20.255Z,23.32
2022-08-07T03:15:56.463Z,24.57
2022-08-07T03:18:34.652Z,26.41
2022-08-07T03:21:08.614Z,27.89
2022-08-07T03:24:20.228Z,29.41
2022-08-07T03:26:33.738Z,30.67
2022-08-07T03:29:11.152Z,31.63
2022-08-07T03:31:50.037Z,32.45
2022-08-07T03:34:22.128Z,33.19
2022-08-07T03:37:00.234Z,33.90
2022-08-07T03:40:00.088Z,34.97
2022-08-07T03:42:33.625Z,35.63
2022-08-07T03:45:03.322Z,36.26
2022-08-07T03:47:48.286Z,36.49
2022-08-07T03:50:24.469Z,37.45
2022-08-07T03:52:57.655Z,38.01
2022-08-07T03:55:52.963Z,38.21
2022-08-07T03:59:05.452Z,38.64
2022-08-07T04:01:02.665Z,38.94
2022-08-07T04:03:49.659Z,39.07
2022-08-07T04:06:38.420Z,39.29
2022-08-07T04:09:16.009Z,39.29
2022-08-07T04:12:23.580Z,39.43
2022-08-07T04:14:43.887Z,39.74
2022-08-07T04:17:21.046Z,40.53
2022-08-07T04:19:54.362Z,40.99
2022-08-07T04:22:29.406Z,41.47
2022-08-07T04:25:02.094Z,41.76
2022-08-07T04:27:36.144Z,42.17
2022-08-07T04:30:35.633Z,42.62
2022-08-07T04:33:08.095Z,43.29
2022-08-07T04:35:39.848Z,43.48
2022-08-07T04:38:16.108Z,43.69
2022-08-07T04:40:51.795Z,44.02
2022-08-07T04:44:12.106Z,44.29
2022-08-07T04:46:53.950Z,44.70
2022-08-07T04:49:37.785Z,44.96
2022-08-07T04:52:27.453Z,45.02
2022-08-07T04:58:13.924Z,45.58
2022-08-07T04:59:15.799Z,45.82
2022-08-07T05:01:32.521Z,46.37
2022-08-07T05:04:08.313Z,46.70
2022-08-07T05:07:09.778Z,46.78
2022-08-07T05:10:08.011Z,46.63
2022-08-07T05:13:00.078Z,46.96
2022-08-07T05:15:42.718Z,47.09
2022-08-07T05:18:30.064Z,46.71
2022-08-07T05:21:04.718Z,46.97
2022-08-07T05:23:47.590Z,46.85
2022-08-07T05:26:23.916Z,47.35
2022-08-07T05:29:04.208Z,47.85
2022-08-07T05:31:38.701Z,47.72
2022-08-07T05:34:15.715Z,47.02
2022-08-07T05:36:52.895Z,47.78
2022-08-07T05:40:18.070Z,47.53
2022-08-07T05:42:34.384Z,47.95
2022-08-07T05:45:26.042Z,48.45
2022-08-07T05:48:03.871Z,48.85
2022-08-07T05:50:42.826Z,48.65
2022-08-07T05:54:13.343Z,47.81
2022-08-07T05:56:05.795Z,48.15
2022-08-07T05:58:39.379Z,46.98
2022-08-07T06:01:12.413Z,45.36
2022-08-07T06:03:56.690Z,43.13
2022-08-07T06:06:29.554Z,41.52
2022-08-07T06:08:58.450Z,40.45
2022-08-07T06:11:27.602Z,39.59
2022-08-07T06:14:13.031Z,38.39
2022-08-07T06:16:50.226Z,37.36
2022-08-07T06:19:57.685Z,36.42
2022-08-07T06:22:23.823Z,35.88
2022-08-07T06:25:04.959Z,35.04
2022-08-07T06:28:00.228Z,33.83
2022-08-07T06:30:35.224Z,33.49
2022-08-07T06:33:15.682Z,33.04
2022-08-07T06:36:06.900Z,32.89
2022-08-07T06:38:37.702Z,32.64
2022-08-07T06:41:13.045Z,32.38
2022-08-07T06:44:01.753Z,32.33
2022-08-07T06:46:35.498Z,31.87
2022-08-07T06:49:05.070Z,32.14
2022-08-07T06:51:49.493Z,31.94
2022-08-07T06:55:33.271Z,31.52
2022-08-07T06:57:10.492Z,30.87
2022-08-07T07:00:12.662Z,30.55
2022-08-07T07:02:53.419Z,30.41
2022-08-07T07:06:02.959Z,30.12
2022-08-07T07:08:18.898Z,30.15
2022-08-07T07:10:57.164Z,30.54
2022-08-07T07:13:55.366Z,31.91
2022-08-07T07:16:27.333Z,35.84
2022-08-07T07:19:11.512Z,39.03
2022-08-07T07:22:11.403Z,41.08
2022-08-07T07:24:56.936Z,39.58
2022-08-07T07:27:35.826Z,38.00
2022-08-07T07:30:37.986Z,37.04
2022-08-07T07:33:11.453Z,36.27
2022-08-07T07:35:51.916Z,36.94
2022-08-07T07:38:32.669Z,37.14
2022-08-07T07:41:08.897Z,36.07
2022-08-07T07:44:14.654Z,36.32
2022-08-07T07:46:38.065Z,35.99
2022-08-07T07:50:34.516Z,36.56
2022-08-07T07:52:10.180Z,37.20
2022-08-07T07:54:38.361Z,39.47
2022-08-07T07:57:09.378Z,41.89
2022-08-07T07:59:52.784Z,43.74
2022-08-07T08:02:35.342Z,44.36
2022-08-07T08:05:05.554Z,43.74
2022-08-07T08:08:00.029Z,42.85
2022-08-07T08:10:37.819Z,41.28
2022-08-07T08:13:10.582Z,41.26
2022-08-07T08:15:58.427Z,39.62
2022-08-07T08:18:28.456Z,39.43
2022-08-07T08:21:00.693Z,39.28
2022-08-07T08:23:52.101Z,38.20
2022-08-07T08:26:40.342Z,38.03
2022-08-07T08:29:09.045Z,37.76
2022-08-07T08:31:58.904Z,37.51
2022-08-07T08:34:39.229Z,37.10
2022-08-07T08:38:01.419Z,36.47
2022-08-07T08:39:59.198Z,36.62
2022-08-07T08:42:26.628Z,36.42
2022-08-07T08:45:16.963Z,36.08
2022-08-07T08:48:05.197Z,36.05
2022-08-07T08:50:40.186Z,35.63
2022-08-07T08:53:10.768Z,34.89
2022-08-07T08:55:54.730Z,34.79
2022-08-07T08:58:54.636Z,34.70
2022-08-07T09:02:01.664Z,34.66
2022-08-07T09:04:54.671Z,34.62
2022-08-07T09:07:46.157Z,34.44
2022-08-07T09:10:29.463Z,34.58
2022-08-07T09:13:14.757Z,34.75
2022-08-07T09:16:23.002Z,34.97
2022-08-07T09:18:58.399Z,35.27
2022-08-07T09:21:33.775Z,35.48
2022-08-07T09:24:58.949Z,34.91
2022-08-07T09:28:00.810Z,35.42
2022-08-07T09:30:54.286Z,34.87
2022-08-07T09:33:57.445Z,35.47
2022-08-07T09:36:37.079Z,35.32
2022-08-07T09:39:52.913Z,35.29
2022-08-07T09:42:33.243Z,35.13
2022-08-07T09:47:20.230Z,35.06
2022-08-07T09:48:14.692Z,34.46
2022-08-07T09:51:26.106Z,33.31
2022-08-07T09:54:02.370Z,33.83
2022-08-07T09:56:58.875Z,33.78
2022-08-07T09:59:44.588Z,33.86
2022-08-07T10:02:55.155Z,33.73
2022-08-07T10:06:00.619Z,33.66
2022-08-07T10:08:38.095Z,33.54
2022-08-07T10:12:02.036Z,33.41
2022-08-07T10:14:35.454Z,33.16
2022-08-07T10:17:33.801Z,33.11
2022-08-07T10:20:50.175Z,33.06
2022-08-07T10:24:06.070Z,32.84
2022-08-07T10:27:12.419Z,32.85
2022-08-07T10:30:12.404Z,32.77
2022-08-07T10:32:53.353Z,32.86
2022-08-07T10:35:55.896Z,32.82
2022-08-07T10:38:48.755Z,32.75
2022-08-07T10:41:46.968Z,32.64
2022-08-07T10:44:37.568Z,32.69
2022-08-07T10:47:18.733Z,32.56
2022-08-07T10:50:15.068Z,32.24
2022-08-07T10:53:05.239Z,32.19
2022-08-07T10:56:02.289Z,32.05
2022-08-07T10:58:59.388Z,31.82
2022-08-07T11:01:51.026Z,31.84
2022-08-07T11:04:52.674Z,32.00
2022-08-07T11:07:58.651Z,32.12
2022-08-07T11:10:32.088Z,32.18
2022-08-07T11:14:41.966Z,32.13
2022-08-07T11:16:30.618Z,31.82
2022-08-07T11:19:11.693Z,31.82
2022-08-07T11:21:45.226Z,31.85
2022-08-07T11:24:24.356Z,30.93
2022-08-07T11:27:02.076Z,31.38
2022-08-07T11:30:10.006Z,32.07
2022-08-07T11:33:02.751Z,31.94
2022-08-07T11:36:10.011Z,31.86
2022-08-07T11:39:01.849Z,31.15
2022-08-07T11:42:02.439Z,31.65
2022-08-07T11:44:36.967Z,31.53
2022-08-07T11:47:23.364Z,31.47
2022-08-07T11:50:57.866Z,31.07
2022-08-07T11:53:56.981Z,30.89
2022-08-07T11:56:55.315Z,30.72
2022-08-07T12:00:10.534Z,30.62
2022-08-07T12:02:52.111Z,30.53
2022-08-07T12:05:47.253Z,30.50
2022-08-07T12:08:34.388Z,29.35
2022-08-07T12:11:21.156Z,29.70
2022-08-07T12:14:04.439Z,30.01
2022-08-07T12:16:41.296Z,29.83
2022-08-07T12:19:22.120Z,29.80
2022-08-07T12:22:38.090Z,29.70
2022-08-07T12:26:05.495Z,29.54
2022-08-07T12:28:45.156Z,28.95
2022-08-07T12:31:52.779Z,29.51
2022-08-07T12:34:29.689Z,29.27
2022-08-07T12:36:59.777Z,28.89
2022-08-07T12:39:43.328Z,29.12
2022-08-07T12:42:16.013Z,29.00
2022-08-07T12:44:46.977Z,28.79
2022-08-07T12:47:37.696Z,28.49
2022-08-07T12:50:39.592Z,28.39
2022-08-07T12:53:22.703Z,28.26
2022-08-07T12:56:16.269Z,27.81
2022-08-07T12:58:53.002Z,28.25
2022-08-07T13:01:32.156Z,28.29
2022-08-07T13:04:49.227Z,28.24
2022-08-07T13:08:14.414Z,28.28
2022-08-07T13:11:01.110Z,28.45
2022-08-07T13:13:46.762Z,28.17
2022-08-07T13:16:39.806Z,28.18
2022-08-07T13:19:45.843Z,28.06
2022-08-07T13:22:33.511Z,28.01
2022-08-07T13:25:06.856Z,28.00
2022-08-07T13:28:10.649Z,27.86
2022-08-07T13:30:41.257Z,27.71
2022-08-07T13:34:32.032Z,27.88
2022-08-07T13:36:27.674Z,27.61
2022-08-07T13:39:05.142Z,27.63
2022-08-07T13:41:48.615Z,27.60
2022-08-07T13:44:26.460Z,27.53
2022-08-07T13:46:59.469Z,27.51
2022-08-07T13:50:33.800Z,27.28
2022-08-07T13:52:26.446Z,27.35
2022-08-07T13:55:19.185Z,26.81
2022-08-07T13:58:27.870Z,27.24
2022-08-07T14:01:08.894Z,26.65
2022-08-07T14:04:05.611Z,27.12
2022-08-07T14:06:34.972Z,27.05
2022-08-07T14:09:04.646Z,26.87
2022-08-07T14:11:53.196Z,26.50
2022-08-07T14:14:41.806Z,26.23
2022-08-07T14:18:12.612Z,26.20
2022-08-07T14:20:40.993Z,26.73
2022-08-07T14:24:00.241Z,26.13
2022-08-07T14:26:31.956Z,26.68
2022-08-07T14:29:05.995Z,26.59
2022-08-07T14:31:56.499Z,26.63
2022-08-07T14:34:30.111Z,26.40
2022-08-07T14:37:03.659Z,25.55
2022-08-07T14:40:15.886Z,26.56
2022-08-07T14:42:31.401Z,26.12
2022-08-07T14:45:21.381Z,25.98
2022-08-07T14:47:53.079Z,26.66
2022-08-07T14:50:28.201Z,26.47
2022-08-07T14:52:57.290Z,26.07
2022-08-07T14:58:28.190Z,26.06
2022-08-07T15:00:59.126Z,26.81
2022-08-07T15:03:51.641Z,26.44
2022-08-07T15:06:23.497Z,26.78
2022-08-07T15:08:54.561Z,26.74
2022-08-07T15:11:53.774Z,26.61
2022-08-07T15:14:25.383Z,26.30
2022-08-07T15:17:04.306Z,26.13
2022-08-07T15:25:25.712Z,26.31
2022-08-07T15:28:34.999Z,26.13
2022-08-07T15:31:05.640Z,26.29
2022-08-07T15:33:36.793Z,26.22
2022-08-07T15:36:07.967Z,25.97
2022-08-07T15:42:45.627Z,25.87
2022-08-07T15:44:23.796Z,25.70
2022-08-07T15:50:06.035Z,25.70
2022-08-07T15:52:38.206Z,25.58
2022-08-07T15:55:11.423Z,25.58
2022-08-07T15:57:48.831Z,25.01
2022-08-07T16:00:31.220Z,25.50
2022-08-07T16:03:05.242Z,25.34
2022-08-07T16:05:34.844Z,24.27
2022-08-07T16:08:31.178Z,24.79
2022-08-07T16:11:26.831Z,25.04
2022-08-07T16:14:19.172Z,25.00
2022-08-07T16:18:02.283Z,24.90
2022-08-07T16:20:38.708Z,24.86
2022-08-07T16:23:53.475Z,24.79
2022-08-07T16:26:30.709Z,24.75
2022-08-07T16:30:11.880Z,24.58
2022-08-07T16:32:32.988Z,24.39
2022-08-07T16:35:52.377Z,24.45
2022-08-07T16:39:00.591Z,24.41
2022-08-07T16:42:04.693Z,24.30
2022-08-07T16:46:47.064Z,24.21
2022-08-07T16:49:04.379Z,24.10
2022-08-07T16:52:51.052Z,24.02
2022-08-07T16:55:47.319Z,23.93
2022-08-07T16:59:10.639Z,23.93
2022-08-07T17:02:14.169Z,23.84
2022-08-07T17:06:02.414Z,23.80
2022-08-07T17:08:10.943Z,23.75
2022-08-07T17:10:54.644Z,23.78
2022-08-07T17:13:41.652Z,23.75
2022-08-07T17:16:37.952Z,23.74
2022-08-07T17:20:02.825Z,23.71
2022-08-07T17:22:30.051Z,23.46
2022-08-07T17:25:13.288Z,23.63
2022-08-07T17:27:58.039Z,23.57
2022-08-07T17:30:35.713Z,23.50
2022-08-07T17:34:10.229Z,23.47
2022-08-07T17:36:29.028Z,23.37
2022-08-07T17:39:57.868Z,23.22
2022-08-07T17:42:59.898Z,23.24
2022-08-07T17:45:35.161Z,23.14
2022-08-07T17:48:10.395Z,23.16
2022-08-07T17:51:21.677Z,23.04
2022-08-07T17:54:39.681Z,23.01
2022-08-07T17:57:59.188Z,22.97
2022-08-07T18:00:34.120Z,22.53
2022-08-07T18:03:21.130Z,22.94
2022-08-07T18:06:06.491Z,22.91
2022-08-07T18:09:01.824Z,22.81
2022-08-07T18:12:16.287Z,22.82
2022-08-07T18:14:31.809Z,22.46
2022-08-07T18:18:46.500Z,22.71
2022-08-07T18:21:09.542Z,22.03
2022-08-07T18:23:46.678Z,22.61
2022-08-07T18:27:17.270Z,22.54
2022-08-07T18:30:08.019Z,22.54
2022-08-07T18:33:12.199Z,22.48
2022-08-07T18:36:18.030Z,22.43
2022-08-07T18:40:06.631Z,22.47
2022-08-07T18:42:13.092Z,22.49
2022-08-07T18:45:43.112Z,22.50
2022-08-07T18:50:05.819Z,22.50
2022-08-07T18:52:37.506Z,22.48
2022-08-07T18:54:49.594Z,22.44
2022-08-07T18:57:37.083Z,22.45
2022-08-07T19:00:33.420Z,22.45
2022-08-07T19:03:15.993Z,22.48
2022-08-07T19:06:08.343Z,22.47
2022-08-07T19:11:15.469Z,22.57
2022-08-07T19:14:08.037Z,22.54
2022-08-07T19:17:07.747Z,22.56
2022-08-07T19:19:48.962Z,22.50
2022-08-07T19:22:31.181Z,22.53
2022-08-07T19:25:06.567Z,22.52
2022-08-07T19:28:58.489Z,22.50
2022-08-07T19:31:00.297Z,22.44
2022-08-07T19:33:35.044Z,22.45
2022-08-07T19:38:34.237Z,22.14
2022-08-07T19:41:02.811Z,22.50
2022-08-07T19:43:48.737Z,22.49
2022-08-07T19:46:26.698Z,22.46
2022-08-07T19:49:03.481Z,22.41
2022-08-07T19:51:52.091Z,22.39
2022-08-07T19:54:35.150Z,22.01
2022-08-07T19:58:04.472Z,21.67
2022-08-07T20:00:10.402Z,22.30
2022-08-07T20:02:51.844Z,22.41
2022-08-07T20:05:59.666Z,22.06
2022-08-07T20:08:32.669Z,22.01
2022-08-07T20:11:03.948Z,22.20
2022-08-07T20:13:53.978Z,22.43
2022-08-07T20:16:34.967Z,22.48
2022-08-07T20:19:09.929Z,22.50
2022-08-07T20:21:47.602Z,22.10
2022-08-07T20:24:22.132Z,22.49
2022-08-07T20:26:54.884Z,22.57
2022-08-07T20:29:47.019Z,22.52
2022-08-07T20:32:27.132Z,22.47
2022-08-07T20:35:11.380Z,22.45
2022-08-07T20:37:59.195Z,22.27
2022-08-07T20:40:34.646Z,22.31
2022-08-07T20:43:14.852Z,21.57
2022-08-07T20:46:25.666Z,22.28
2022-08-07T20:48:58.012Z,22.16
2022-08-07T20:51:30.832Z,22.17
2022-08-07T20:54:12.237Z,22.14
2022-08-07T20:56:48.203Z,22.09
2022-08-07T21:00:05.438Z,22.04
2022-08-07T21:02:35.193Z,21.79
2022-08-07T21:05:16.261Z,21.48
2022-08-07T21:07:49.586Z,21.80
2022-08-07T21:10:39.292Z,21.87
2022-08-07T21:13:12.627Z,21.69
2022-08-07T21:16:00.005Z,21.74
2022-08-07T21:18:34.206Z,21.72
2022-08-07T21:21:04.443Z,21.36
2022-08-07T21:23:50.237Z,21.50
2022-08-07T21:26:24.772Z,21.04
2022-08-07T21:29:03.265Z,21.43
2022-08-07T21:32:46.823Z,21.45
2022-08-07T21:35:06.864Z,21.45
2022-08-07T21:38:03.605Z,21.51
2022-08-07T21:40:41.733Z,21.55
2022-08-07T21:43:14.211Z,21.54
2022-08-07T21:46:08.153Z,21.52
2022-08-07T21:48:57.541Z,21.25
2022-08-07T21:51:51.233Z,21.37
2022-08-07T21:54:26.444Z,21.12
2022-08-07T21:57:30.831Z,21.17
2022-08-07T22:00:22.025Z,21.23
2022-08-07T22:03:31.414Z,21.22
2022-08-07T22:06:07.256Z,21.23
2022-08-07T22:08:59.991Z,21.26
2022-08-07T22:11:30.600Z,21.29
2022-08-07T22:14:23.830Z,20.99
2022-08-07T22:17:05.906Z,21.28
2022-08-07T22:20:04.090Z,21.24
2022-08-07T22:22:44.755Z,21.22
2022-08-07T22:25:45.589Z,21.24
2022-08-07T22:28:31.130Z,21.23
2022-08-07T22:31:00.705Z,21.24
2022-08-07T22:33:56.728Z,21.10
2022-08-07T22:37:02.236Z,21.09
2022-08-07T22:39:53.518Z,21.06
2022-08-07T22:42:29.574Z,21.00
2022-08-07T22:45:02.291Z,20.97
2022-08-07T22:47:49.405Z,20.98
2022-08-07T22:50:43.765Z,20.95
2022-08-07T22:54:07.500Z,20.84
2022-08-07T22:57:16.995Z,20.71
2022-08-07T23:00:06.746Z,20.60
2022-08-07T23:02:56.209Z,20.00
2022-08-07T23:06:09.606Z,20.59
2022-08-07T23:08:58.456Z,20.62
2022-08-07T23:11:59.006Z,20.53
2022-08-07T23:14:48.545Z,20.61
2022-08-07T23:17:41.801Z,20.50
2022-08-07T23:20:53.248Z,20.42
2022-08-07T23:24:05.534Z,20.31
2022-08-07T23:26:50.383Z,20.30
2022-08-07T23:29:43.610Z,20.23
2022-08-07T23:34:34.287Z,20.29
2022-08-07T23:36:05.573Z,20.31
2022-08-07T23:38:57.052Z,20.27
2022-08-07T23:42:05.152Z,20.42
2022-08-07T23:44:41.858Z,20.46
2022-08-07T23:47:23.053Z,20.52
2022-08-07T23:50:16.358Z,20.56
2022-08-07T23:53:06.585Z,20.53
2022-08-07T23:55:53.349Z,20.62
2022-08-07T23:58:51.934Z,20.61
